createdAt,value
2023-02-09T00:01:40.852Z,61.28
2023-02-09T00:04:41.939Z,64.32
2023-02-09T00:07:43.221Z,62.85
2023-02-09T00:10:44.265Z,58.97
2023-02-09T00:13:45.271Z,69.32
2023-02-09T00:16:47.046Z,62.85
2023-02-09T00:19:48.285Z,55.10
2023-02-09T00:22:49.207Z,56.85
2023-02-09T00:25:51.877Z,68.55
2023-02-09T00:28:52.980Z,60.92
2023-02-09T00:31:55.003Z,59.63
2023-02-09T00:34:56.179Z,60.67
2023-02-09T00:37:57.062Z,61.72
2023-02-09T00:40:58.138Z,65.90
2023-02-09T00:43:58.890Z,69.47
2023-02-09T00:46:59.837Z,69.45
2023-02-09T00:50:01.090Z,62.20
2023-02-09T00:53:03.201Z,58.08
2023-02-09T00:56:04.800Z,67.65
2023-02-09T00:59:06.349Z,62.80
2023-02-09T01:02:07.254Z,67.03
2023-02-09T01:05:08.700Z,67.10
2023-02-09T01:08:09.775Z,65.97
2023-02-09T01:11:14.131Z,68.88
2023-02-09T01:14:16.435Z,62.88
2023-02-09T01:17:17.393Z,65.68
2023-02-09T01:20:18.478Z,60.58
2023-02-09T01:23:19.258Z,66.15
2023-02-09T01:26:20.767Z,58.13
2023-02-09T01:29:22.405Z,61.28
2023-02-09T01:32:23.258Z,64.47
2023-02-09T01:35:24.187Z,81.28
2023-02-09T01:38:25.534Z,68.70
2023-02-09T01:41:28.101Z,57.45
2023-02-09T01:44:29.298Z,59.38
2023-02-09T01:47:29.996Z,69.50
2023-02-09T01:50:39.532Z,64.88
2023-02-09T01:53:40.802Z,61.10
2023-02-09T01:56:48.518Z,65.35
2023-02-09T02:00:07.897Z,60.83
2023-02-09T02:03:22.672Z,57.92
2023-02-09T02:06:23.513Z,63.88
2023-02-09T02:09:26.392Z,53.05
2023-02-09T02:12:27.639Z,51.78
2023-02-09T02:15:43.535Z,51.28
2023-02-09T02:19:10.632Z,57.65
2023-02-09T02:23:07.618Z,55.10
2023-02-09T02:26:57.727Z,48.10
2023-02-09T02:30:30.007Z,56.35
2023-02-09T02:33:54.628Z,53.28
2023-02-09T02:37:05.054Z,51.28
2023-02-09T02:40:22.307Z,55.45
2023-02-09T02:44:05.822Z,54.03
2023-02-09T02:47:13.263Z,52.47
2023-02-09T02:53:25.853Z,51.95
2023-02-09T02:56:42.817Z,48.92
2023-02-09T02:59:52.881Z,53.63
2023-02-09T03:03:00.017Z,53.33
2023-02-09T03:06:05.741Z,54.60
2023-02-09T03:09:08.827Z,44.60
2023-02-09T03:12:30.571Z,54.22
2023-02-09T03:15:34.229Z,52.67
2023-02-09T03:18:59.374Z,58.05
2023-02-09T03:22:21.726Z,55.95
2023-02-09T03:25:42.887Z,55.55
2023-02-09T03:28:49.014Z,57.22
2023-02-09T03:31:51.713Z,47.23
2023-02-09T03:34:55.202Z,55.28
2023-02-09T03:37:56.194Z,60.40
2023-02-09T03:40:56.935Z,58.60
2023-02-09T03:44:16.378Z,62.03
2023-02-09T03:47:17.209Z,58.45
2023-02-09T03:50:18.512Z,63.67
2023-02-09T03:53:19.358Z,60.67
2023-02-09T03:56:20.156Z,65.18
2023-02-09T03:59:21.669Z,68.57
2023-02-09T04:02:22.499Z,59.75
2023-02-09T04:05:23.717Z,67.15
2023-02-09T04:08:24.899Z,74.53
2023-02-09T04:11:26.517Z,69.63
2023-02-09T04:14:27.390Z,71.95
2023-02-09T04:17:28.693Z,74.72
2023-02-09T04:20:29.498Z,67.30
2023-02-09T04:23:30.255Z,68.25
2023-02-09T04:26:31.622Z,74.53
2023-02-09T04:29:33.099Z,68.15
2023-02-09T04:32:33.840Z,60.47
2023-02-09T04:35:34.857Z,62.83
2023-02-09T04:38:36.047Z,67.43
2023-02-09T04:41:36.889Z,60.63
2023-02-09T04:44:38.061Z,53.60
2023-02-09T04:47:39.341Z,61.95
2023-02-09T04:50:41.021Z,66.35
2023-02-09T04:53:41.921Z,67.70
2023-02-09T04:56:42.612Z,70.55
2023-02-09T04:59:45.108Z,76.97
2023-02-09T05:02:46.353Z,76.10
2023-02-09T05:05:47.118Z,74.68
2023-02-09T05:08:48.789Z,66.60
2023-02-09T05:11:49.922Z,69.53
2023-02-09T05:14:50.662Z,66.25
2023-02-09T05:17:52.239Z,71.07
2023-02-09T05:20:53.350Z,63.42
2023-02-09T05:23:54.157Z,67.47
2023-02-09T05:26:55.005Z,53.40
2023-02-09T05:29:56.029Z,67.13
2023-02-09T05:32:57.152Z,59.38
2023-02-09T05:35:58.197Z,51.92
2023-02-09T05:38:58.872Z,56.17
2023-02-09T05:42:17.831Z,59.97
2023-02-09T05:45:18.762Z,63.58
2023-02-09T05:48:19.515Z,55.13
2023-02-09T05:51:20.281Z,53.47
2023-02-09T05:54:21.141Z,50.00
2023-02-09T05:57:22.418Z,58.70
2023-02-09T06:00:25.289Z,53.92
2023-02-09T06:03:26.112Z,58.67
2023-02-09T06:06:27.488Z,59.75
2023-02-09T06:09:28.474Z,67.13
2023-02-09T06:12:29.292Z,84.80
2023-02-09T06:15:30.158Z,84.05
2023-02-09T06:18:31.319Z,87.85
2023-02-09T06:21:33.307Z,78.78
2023-02-09T06:24:34.334Z,72.65
2023-02-09T06:27:36.430Z,72.50
2023-02-09T06:30:37.728Z,63.28
2023-02-09T06:33:39.710Z,56.13
2023-02-09T06:36:40.612Z,59.30
2023-02-09T06:39:41.224Z,64.78
2023-02-09T06:42:44.629Z,57.33
2023-02-09T06:45:45.329Z,60.45
2023-02-09T06:48:46.108Z,61.35
2023-02-09T06:51:47.433Z,56.33
2023-02-09T06:54:48.690Z,61.15
2023-02-09T06:57:49.673Z,58.70
2023-02-09T07:00:50.477Z,56.00
2023-02-09T07:03:51.215Z,56.53
2023-02-09T07:06:52.218Z,58.78
2023-02-09T07:09:53.039Z,58.85
2023-02-09T07:12:57.348Z,58.38
2023-02-09T07:16:01.492Z,60.38
2023-02-09T07:19:02.622Z,70.05
2023-02-09T07:22:03.337Z,67.63
2023-02-09T07:25:04.429Z,67.85
2023-02-09T07:28:05.471Z,75.95
2023-02-09T07:31:11.272Z,76.78
2023-02-09T07:34:12.227Z,74.20
2023-02-09T07:37:13.025Z,70.95
2023-02-09T07:40:14.386Z,67.13
2023-02-09T07:43:15.366Z,61.15
2023-02-09T07:46:21.233Z,61.20
2023-02-09T07:49:22.425Z,56.63
2023-02-09T07:52:23.617Z,51.75
2023-02-09T07:55:24.399Z,46.92
2023-02-09T07:58:25.228Z,43.72
2023-02-09T08:01:26.004Z,38.03
2023-02-09T08:04:26.870Z,37.75
2023-02-09T08:07:28.522Z,34.67
2023-02-09T08:10:29.991Z,34.20
2023-02-09T08:13:38.225Z,34.75
2023-02-09T08:16:40.143Z,32.92
2023-02-09T08:19:44.012Z,32.88
2023-02-09T08:22:51.787Z,41.28
2023-02-09T08:25:53.866Z,36.67
2023-02-09T08:28:56.167Z,41.50
2023-02-09T08:31:57.166Z,36.65
2023-02-09T08:34:58.074Z,37.28
2023-02-09T08:38:04.481Z,48.22
2023-02-09T08:41:08.142Z,45.97
2023-02-09T08:44:08.844Z,39.83
2023-02-09T08:47:09.642Z,53.90
2023-02-09T08:50:10.529Z,45.40
2023-02-09T08:53:11.222Z,52.13
2023-02-09T08:56:12.202Z,40.15
2023-02-09T08:59:13.166Z,48.08
2023-02-09T09:02:14.034Z,44.58
2023-02-09T09:05:15.441Z,49.10
2023-02-09T09:08:16.439Z,40.22
2023-02-09T09:11:17.525Z,36.03
2023-02-09T09:14:18.571Z,38.72
2023-02-09T09:17:19.389Z,44.97
2023-02-09T09:20:20.125Z,38.03
2023-02-09T09:23:21.489Z,39.70
2023-02-09T09:26:22.818Z,40.47
2023-02-09T09:29:25.059Z,37.40
2023-02-09T09:32:25.955Z,37.22
2023-02-09T09:35:29.728Z,29.55
2023-02-09T09:38:30.784Z,32.80
2023-02-09T09:41:38.244Z,28.23
2023-02-09T09:44:47.138Z,32.83
2023-02-09T09:47:49.112Z,28.55
2023-02-09T09:50:56.570Z,31.33
2023-02-09T09:54:00.406Z,36.85
2023-02-09T09:57:18.555Z,29.58
2023-02-09T10:00:28.567Z,27.08
2023-02-09T10:03:29.329Z,25.48
2023-02-09T10:06:33.970Z,28.08
2023-02-09T10:09:57.360Z,27.58
2023-02-09T10:13:03.310Z,28.95
2023-02-09T10:16:14.292Z,35.42
2023-02-09T10:19:25.421Z,28.33
2023-02-09T10:22:26.533Z,27.15
2023-02-09T10:26:00.848Z,32.83
2023-02-09T10:29:11.170Z,28.92
2023-02-09T10:32:16.902Z,25.73
2023-02-09T10:35:41.691Z,24.50
2023-02-09T10:38:42.717Z,27.33
2023-02-09T10:41:49.272Z,25.23
2023-02-09T10:44:54.984Z,21.93
2023-02-09T10:48:13.210Z,21.38
2023-02-09T10:51:33.838Z,18.15
2023-02-09T10:54:34.638Z,18.48
2023-02-09T10:57:39.306Z,22.67
2023-02-09T11:00:55.267Z,25.88
2023-02-09T11:04:20.309Z,20.80
2023-02-09T11:07:29.081Z,27.80
2023-02-09T11:10:39.090Z,17.75
2023-02-09T11:13:42.179Z,16.90
2023-02-09T11:16:54.284Z,17.80
2023-02-09T11:20:51.395Z,18.58
2023-02-09T11:24:26.323Z,18.73
2023-02-09T11:28:01.072Z,16.08
2023-02-09T11:31:44.543Z,16.25
2023-02-09T11:35:12.273Z,16.38
2023-02-09T11:38:20.742Z,16.60
2023-02-09T11:41:59.119Z,17.30
2023-02-09T11:45:17.995Z,19.42
2023-02-09T11:48:31.541Z,18.05
2023-02-09T11:51:39.659Z,17.08
2023-02-09T11:54:41.174Z,15.93
2023-02-09T11:57:50.470Z,19.30
2023-02-09T12:01:27.259Z,17.73
2023-02-09T12:04:42.456Z,19.23
2023-02-09T12:08:23.063Z,18.58
2023-02-09T12:11:38.839Z,19.75
2023-02-09T12:14:50.576Z,17.65
2023-02-09T12:18:16.732Z,20.73
2023-02-09T12:21:32.430Z,21.45
2023-02-09T12:24:40.251Z,22.33
2023-02-09T12:28:03.558Z,22.05
2023-02-09T12:31:08.820Z,20.85
2023-02-09T12:34:28.933Z,17.17
2023-02-09T12:37:30.210Z,19.75
2023-02-09T12:40:38.293Z,17.65
2023-02-09T12:43:41.167Z,20.13
2023-02-09T12:46:47.688Z,20.17
2023-02-09T12:49:48.532Z,20.63
2023-02-09T12:53:23.614Z,17.85
2023-02-09T12:56:29.481Z,19.45
2023-02-09T12:59:30.479Z,20.08
2023-02-09T13:02:55.164Z,18.83
2023-02-09T13:06:02.003Z,19.92
2023-02-09T13:09:08.691Z,16.67
2023-02-09T13:12:19.652Z,19.00
2023-02-09T13:15:20.775Z,15.23
2023-02-09T13:18:59.453Z,18.48
2023-02-09T13:22:40.874Z,19.45
2023-02-09T13:25:41.794Z,27.77
2023-02-09T13:28:42.461Z,16.25
2023-02-09T13:31:50.269Z,22.33
2023-02-09T13:35:32.262Z,14.40
2023-02-09T13:38:35.233Z,14.93
2023-02-09T13:41:40.992Z,13.77
2023-02-09T13:44:46.011Z,16.85
2023-02-09T13:47:47.951Z,15.38
2023-02-09T13:50:50.522Z,16.80
2023-02-09T13:54:02.835Z,13.95
2023-02-09T13:57:09.623Z,16.30
2023-02-09T14:00:25.322Z,14.38
2023-02-09T14:03:31.149Z,17.48
2023-02-09T14:07:08.602Z,14.57
2023-02-09T14:10:17.162Z,14.45
2023-02-09T14:13:24.109Z,22.55
2023-02-09T14:16:28.344Z,35.10
2023-02-09T14:19:32.606Z,34.55
2023-02-09T14:22:40.085Z,29.95
2023-02-09T14:25:42.287Z,30.15
2023-02-09T14:28:51.710Z,32.83
2023-02-09T14:31:56.558Z,33.97
2023-02-09T14:34:57.522Z,31.48
2023-02-09T14:38:01.907Z,31.52
2023-02-09T14:41:30.382Z,30.40
2023-02-09T14:44:31.105Z,32.55
2023-02-09T14:47:44.702Z,33.72
2023-02-09T14:50:46.676Z,33.15
2023-02-09T14:53:47.934Z,34.47
2023-02-09T14:56:49.182Z,31.83
2023-02-09T14:59:50.564Z,29.52
2023-02-09T15:02:53.268Z,32.05
2023-02-09T15:06:02.447Z,30.38
2023-02-09T15:09:05.393Z,31.60
2023-02-09T15:12:07.579Z,27.15
2023-02-09T15:15:17.851Z,32.40
2023-02-09T15:18:28.180Z,26.70
2023-02-09T15:21:29.087Z,30.35
2023-02-09T15:24:29.782Z,32.22
2023-02-09T15:27:51.343Z,30.67
2023-02-09T15:30:52.744Z,30.35
2023-02-09T15:33:53.638Z,27.52
2023-02-09T15:36:54.428Z,27.30
2023-02-09T15:40:15.233Z,35.15
2023-02-09T15:43:39.215Z,29.80
2023-02-09T15:46:58.380Z,32.17
2023-02-09T15:49:59.126Z,27.50
2023-02-09T15:53:07.576Z,31.10
2023-02-09T15:56:09.845Z,28.48
2023-02-09T15:59:20.115Z,30.33
2023-02-09T16:02:22.465Z,34.63
2023-02-09T16:05:29.056Z,33.80
2023-02-09T16:08:33.528Z,33.10
2023-02-09T16:11:40.751Z,30.10
2023-02-09T16:14:41.484Z,33.67
2023-02-09T16:17:42.493Z,35.90
2023-02-09T16:20:51.159Z,36.85
2023-02-09T16:23:55.731Z,35.38
2023-02-09T16:27:07.470Z,37.38
2023-02-09T16:30:26.991Z,45.72
2023-02-09T16:33:28.230Z,41.85
2023-02-09T16:36:31.352Z,34.50
2023-02-09T16:39:32.210Z,38.60
2023-02-09T16:42:32.930Z,45.08
2023-02-09T16:45:37.279Z,42.63
2023-02-09T16:48:44.431Z,40.22
2023-02-09T16:51:45.612Z,39.45
2023-02-09T16:54:53.787Z,42.90
2023-02-09T16:57:58.561Z,44.53
2023-02-09T17:00:59.511Z,44.85
2023-02-09T17:04:02.974Z,41.28
2023-02-09T17:07:04.211Z,49.83
2023-02-09T17:10:16.573Z,47.10
2023-02-09T17:13:20.700Z,43.83
2023-02-09T17:16:28.939Z,48.70
2023-02-09T17:19:42.148Z,47.47
2023-02-09T17:22:52.544Z,43.47
2023-02-09T17:25:57.590Z,42.45
2023-02-09T17:28:58.307Z,47.90
2023-02-09T17:31:59.137Z,49.45
2023-02-09T17:34:59.777Z,47.72
2023-02-09T17:38:01.393Z,47.13
2023-02-09T17:41:30.369Z,47.28
2023-02-09T17:44:45.692Z,53.85
2023-02-09T17:47:49.115Z,46.38
2023-02-09T17:50:53.004Z,47.70
2023-02-09T17:53:53.969Z,54.38
2023-02-09T17:56:54.717Z,53.15
2023-02-09T17:59:55.943Z,50.83
2023-02-09T18:02:57.223Z,49.25
2023-02-09T18:06:01.828Z,47.63
2023-02-09T18:09:07.277Z,49.88
2023-02-09T18:12:25.346Z,49.90
2023-02-09T18:15:36.593Z,52.92
2023-02-09T18:18:37.308Z,49.83
2023-02-09T18:21:39.428Z,45.63
2023-02-09T18:24:41.902Z,41.80
2023-02-09T18:27:42.927Z,46.90
2023-02-09T18:30:45.445Z,44.28
2023-02-09T18:33:46.984Z,45.35
2023-02-09T18:36:48.121Z,49.53
2023-02-09T18:39:49.026Z,46.58
2023-02-09T18:42:51.405Z,45.72
2023-02-09T18:45:52.585Z,48.17
2023-02-09T18:48:54.879Z,56.72
2023-02-09T18:51:57.139Z,50.05
2023-02-09T18:54:57.833Z,52.40
2023-02-09T18:58:02.743Z,44.88
2023-02-09T19:01:03.778Z,47.97
2023-02-09T19:04:04.590Z,43.47
2023-02-09T19:07:06.511Z,43.25
2023-02-09T19:10:10.184Z,41.00
2023-02-09T19:13:11.342Z,49.88
2023-02-09T19:16:13.589Z,44.83
2023-02-09T19:19:16.290Z,46.70
2023-02-09T19:22:21.098Z,45.40
2023-02-09T19:25:27.088Z,48.80
2023-02-09T19:28:27.819Z,41.88
2023-02-09T19:31:28.491Z,38.80
2023-02-09T19:34:37.123Z,43.53
2023-02-09T19:37:40.114Z,37.97
2023-02-09T19:40:42.593Z,36.10
2023-02-09T19:43:43.788Z,41.10
2023-02-09T19:46:45.705Z,31.30
2023-02-09T19:49:46.827Z,31.90
2023-02-09T19:52:49.268Z,27.63
2023-02-09T19:55:54.044Z,30.98
2023-02-09T19:58:55.437Z,27.73
2023-02-09T20:01:56.368Z,24.20
2023-02-09T20:04:57.357Z,24.50
2023-02-09T20:07:58.656Z,26.30
2023-02-09T20:11:00.118Z,22.20
2023-02-09T20:17:22.641Z,18.80
2023-02-09T20:20:24.076Z,20.00
2023-02-09T20:23:25.424Z,17.45
2023-02-09T20:26:30.274Z,21.85
2023-02-09T20:29:31.583Z,22.75
2023-02-09T20:32:32.455Z,21.95
2023-02-09T20:35:33.729Z,18.42
2023-02-09T20:38:37.055Z,19.92
2023-02-09T20:41:38.139Z,15.52
2023-02-09T20:44:58.109Z,19.67
2023-02-09T20:47:59.901Z,19.83
2023-02-09T20:51:02.370Z,19.77
2023-02-09T20:54:05.246Z,16.60
2023-02-09T20:57:06.321Z,27.17
2023-02-09T21:00:09.752Z,24.45
2023-02-09T21:03:11.758Z,17.13
2023-02-09T21:06:13.503Z,19.35
2023-02-09T21:09:15.834Z,15.20
2023-02-09T21:12:16.599Z,22.20
2023-02-09T21:15:18.216Z,34.40
2023-02-09T21:18:21.658Z,21.25
2023-02-09T21:21:23.311Z,17.08
2023-02-09T21:24:24.425Z,30.83
2023-02-09T21:27:26.281Z,29.63
2023-02-09T21:30:28.219Z,19.33
2023-02-09T21:33:29.271Z,20.60
2023-02-09T21:36:30.288Z,19.92
2023-02-09T21:39:31.641Z,21.80
2023-02-09T21:42:32.947Z,16.63
2023-02-09T21:45:34.197Z,21.25
2023-02-09T21:48:35.393Z,22.02
2023-02-09T21:51:36.169Z,18.80
2023-02-09T21:54:37.078Z,17.23
2023-02-09T21:57:38.415Z,23.63
2023-02-09T22:00:39.102Z,22.42
2023-02-09T22:03:42.545Z,18.55
2023-02-09T22:06:43.317Z,22.05
2023-02-09T22:09:43.952Z,22.20
2023-02-09T22:12:46.052Z,26.65
2023-02-09T22:15:47.604Z,19.58
2023-02-09T22:18:48.578Z,22.30
2023-02-09T22:21:50.371Z,24.83
2023-02-09T22:24:51.099Z,28.80
2023-02-09T22:27:52.382Z,29.67
2023-02-09T22:30:53.661Z,31.77
2023-02-09T22:33:55.330Z,32.25
2023-02-09T22:36:56.314Z,35.65
2023-02-09T22:39:57.618Z,45.58
2023-02-09T22:42:58.334Z,25.17
2023-02-09T22:45:59.162Z,29.00
2023-02-09T22:49:05.987Z,33.88
2023-02-09T22:52:07.233Z,31.55
2023-02-09T22:55:08.034Z,27.58
2023-02-09T22:58:08.840Z,28.92
2023-02-09T23:01:10.764Z,28.25
2023-02-09T23:04:12.022Z,21.23
2023-02-09T23:07:12.977Z,27.13
2023-02-09T23:10:13.832Z,21.13
2023-02-09T23:13:15.099Z,27.52
2023-02-09T23:16:25.658Z,24.95
2023-02-09T23:19:26.540Z,30.25
2023-02-09T23:22:27.751Z,25.45
2023-02-09T23:25:29.182Z,29.15
2023-02-09T23:28:30.614Z,24.73
2023-02-09T23:31:31.992Z,21.60
2023-02-09T23:34:33.713Z,22.90
2023-02-09T23:37:38.332Z,20.52
2023-02-09T23:40:40.593Z,19.40
2023-02-09T23:43:42.395Z,18.30
2023-02-09T23:46:43.584Z,17.27
2023-02-09T23:49:44.187Z,16.40
2023-02-09T23:52:44.852Z,19.40
2023-02-09T23:55:52.247Z,18.35
2023-02-09T23:58:54.485Z,19.63
